createdAt,value
2023-04-13T00:03:08.786Z,989.839
2023-04-13T00:23:07.632Z,989.565
2023-04-13T00:43:07.676Z,989.401
2023-04-13T01:03:09.358Z,989.101
2023-04-13T01:23:07.433Z,988.906
2023-04-13T01:43:07.542Z,988.871
2023-04-13T02:03:08.843Z,988.965
2023-04-13T02:23:07.782Z,988.953
2023-04-13T02:43:07.721Z,988.857
2023-04-13T03:03:08.990Z,988.861
2023-04-13T03:23:08.038Z,988.834
2023-04-13T03:43:07.913Z,988.711
2023-04-13T04:03:09.214Z,988.774
2023-04-13T04:23:08.079Z,988.799
2023-04-13T04:43:07.709Z,988.98
2023-04-13T05:03:08.887Z,989.255
2023-04-13T05:23:07.949Z,989.394
2023-04-13T05:43:07.789Z,989.655
2023-04-13T06:03:09.441Z,989.98
2023-04-13T06:23:07.392Z,990.265
2023-04-13T06:43:29.996Z,990.394
2023-04-13T07:03:09.672Z,990.687
2023-04-13T07:23:07.581Z,990.905
2023-04-13T07:43:07.596Z,991.161
2023-04-13T08:03:09.236Z,991.5
2023-04-13T08:23:07.123Z,991.896
2023-04-13T08:43:08.007Z,991.94
2023-04-13T09:03:15.214Z,992.114
2023-04-13T09:23:07.365Z,992.616
2023-04-13T09:43:07.411Z,992.874
2023-04-13T10:03:08.730Z,993.133
2023-04-13T10:23:07.721Z,993.186
2023-04-13T10:43:07.614Z,993.653
2023-04-13T11:03:09.691Z,993.873
2023-04-13T11:23:07.539Z,994.066
2023-04-13T11:43:07.456Z,994.097
2023-04-13T12:04:04.411Z,994.324
2023-04-13T12:23:25.391Z,994.351
2023-04-13T12:43:07.659Z,994.484
2023-04-13T13:03:16.478Z,994.636
2023-04-13T13:23:07.640Z,994.873
2023-04-13T13:43:07.611Z,995.028
2023-04-13T14:03:09.129Z,995.154
2023-04-13T14:23:07.278Z,995.354
2023-04-13T14:43:07.344Z,995.448
2023-04-13T15:03:09.583Z,995.627
2023-04-13T15:23:07.742Z,995.8
2023-04-13T15:43:07.781Z,995.978
2023-04-13T16:03:09.086Z,996.301
2023-04-13T16:23:08.127Z,996.448
2023-04-13T16:43:08.265Z,996.781
2023-04-13T17:03:08.785Z,996.968
2023-04-13T17:23:07.940Z,997.249
2023-04-13T17:43:08.105Z,997.373
2023-04-13T18:03:09.691Z,997.45
2023-04-13T18:23:07.776Z,997.709
2023-04-13T18:43:07.915Z,998.106
2023-04-13T19:03:09.798Z,998.434
2023-04-13T19:23:07.919Z,998.594
2023-04-13T19:43:07.950Z,998.676
2023-04-13T20:03:09.596Z,998.811
2023-04-13T20:23:07.727Z,998.897
2023-04-13T20:43:07.934Z,999.016
2023-04-13T21:03:10.156Z,998.864
2023-04-13T21:23:08.103Z,998.905
2023-04-13T21:43:07.291Z,998.938
2023-04-13T22:03:09.146Z,998.982
2023-04-13T22:23:08.043Z,999.138
2023-04-13T22:43:07.792Z,999.285
2023-04-13T23:03:09.004Z,999.483
2023-04-13T23:23:07.898Z,999.587
2023-04-13T23:43:07.653Z,999.533
